Time;durP1;ratioP1;P1;durP2;ratioP2;P2;SDS_P1;SDS_P2;PMS_P1;PMS_P2;Temp;Humidity;BMP_temperature;BMP_pressure;BME280_temperature;BME280_humidity;BME280_pressure;Samples;Min_cycle;Max_cycle;Signal;HPM_P1;HPM_P2
2023/03/14 00:00:49;;;;;;;12.70;6.13;;;;;;;;;;4961663;28;219067;-74
2023/03/14 00:03:15;;;;;;;8.60;5.07;;;;;;;;;;4966087;28;20319;-74
2023/03/14 00:05:42;;;;;;;8.47;5.90;;;;;;;;;;4969257;28;20310;-74
2023/03/14 00:08:09;;;;;;;8.07;5.37;;;;;;;;;;4981609;28;20272;-71
2023/03/14 00:10:36;;;;;;;9.23;5.57;;;;;;;;;;4969057;28;20223;-74
2023/03/14 00:13:03;;;;;;;7.17;4.73;;;;;;;;;;4983847;28;20224;-74
2023/03/14 00:15:30;;;;;;;8.40;5.63;;;;;;;;;;4932946;28;219774;-72
2023/03/14 00:17:56;;;;;;;11.00;6.73;;;;;;;;;;4968535;28;20226;-74
2023/03/14 00:20:23;;;;;;;8.80;5.70;;;;;;;;;;4976710;28;215068;-74
2023/03/14 00:22:50;;;;;;;8.47;5.87;;;;;;;;;;4979595;28;20227;-73
2023/03/14 00:25:17;;;;;;;7.83;4.43;;;;;;;;;;4968967;28;20227;-74
2023/03/14 00:27:44;;;;;;;8.93;5.73;;;;;;;;;;4968951;28;20253;-75
2023/03/14 00:30:12;;;;;;;7.67;5.80;;;;;;;;;;4967255;28;20820;-73
2023/03/14 00:32:39;;;;;;;10.10;6.43;;;;;;;;;;4936219;28;20260;-73
2023/03/14 00:35:07;;;;;;;6.83;5.30;;;;;;;;;;4961153;28;231265;-73
2023/03/14 00:37:34;;;;;;;11.10;6.17;;;;;;;;;;4974559;28;217187;-73
2023/03/14 00:40:01;;;;;;;10.20;6.47;;;;;;;;;;4955166;28;20250;-74
2023/03/14 00:42:27;;;;;;;7.53;5.20;;;;;;;;;;4980398;28;20224;-73
2023/03/14 00:44:57;;;;;;;5.03;3.77;;;;;;;;;;4967891;28;20224;-74
2023/03/14 00:47:23;;;;;;;7.03;3.97;;;;;;;;;;4971674;28;217899;-74
2023/03/14 00:49:51;;;;;;;8.20;5.30;;;;;;;;;;4951119;28;20236;-74
2023/03/14 00:52:18;;;;;;;9.37;5.97;;;;;;;;;;4962691;28;20287;-73
2023/03/14 00:54:44;;;;;;;8.40;5.83;;;;;;;;;;4966038;28;20220;-74
2023/03/14 00:57:11;;;;;;;9.47;5.50;;;;;;;;;;4974296;28;216117;-73
2023/03/14 00:59:38;;;;;;;8.17;4.67;;;;;;;;;;4983662;28;20227;-73
2023/03/14 01:02:04;;;;;;;8.43;5.23;;;;;;;;;;4947957;28;20224;-73
2023/03/14 01:04:31;;;;;;;9.67;5.53;;;;;;;;;;4982278;28;20587;-73
2023/03/14 01:06:58;;;;;;;8.70;5.23;;;;;;;;;;4943692;28;218035;-74
2023/03/14 01:09:25;;;;;;;10.27;5.40;;;;;;;;;;4948017;28;20259;-73
2023/03/14 01:11:52;;;;;;;7.80;5.03;;;;;;;;;;4984060;28;20230;-74
2023/03/14 01:14:18;;;;;;;10.57;5.43;;;;;;;;;;4983335;28;20234;-74
2023/03/14 01:16:45;;;;;;;13.50;5.40;;;;;;;;;;4981230;28;20232;-74
2023/03/14 01:19:12;;;;;;;6.03;3.70;;;;;;;;;;4983253;28;20232;-74
2023/03/14 01:21:38;;;;;;;9.67;6.23;;;;;;;;;;4972929;28;218119;-73
2023/03/14 01:24:23;;;;;;;7.00;4.60;;;;;;;;;;4964884;28;20244;-74
2023/03/14 01:26:49;;;;;;;6.87;4.27;;;;;;;;;;4981300;28;20638;-74
2023/03/14 01:29:16;;;;;;;10.03;5.40;;;;;;;;;;4964306;28;20228;-74
2023/03/14 01:31:43;;;;;;;9.03;6.40;;;;;;;;;;4963833;28;20220;-74
2023/03/14 01:34:10;;;;;;;9.97;5.40;;;;;;;;;;4922138;28;20268;-73
2023/03/14 01:36:36;;;;;;;8.83;5.70;;;;;;;;;;4969119;28;20339;-73
2023/03/14 01:39:05;;;;;;;7.50;4.53;;;;;;;;;;4966268;28;20234;-73
2023/03/14 01:41:32;;;;;;;9.30;6.23;;;;;;;;;;4939801;28;20219;-73
2023/03/14 02:15:45;;;;;;;10.73;5.10;;;;;;;;;;4800324;28;20683;-73
2023/03/14 02:18:31;;;;;;;9.27;5.30;;;;;;;;;;4963966;28;20259;-73
2023/03/14 02:21:17;;;;;;;9.13;5.30;;;;;;;;;;4939565;28;20294;-74
2023/03/14 02:23:51;;;;;;;5.73;4.07;;;;;;;;;;4980404;28;20228;-73
2023/03/14 02:26:32;;;;;;;7.47;4.57;;;;;;;;;;4981695;28;20238;-74
2023/03/14 02:28:58;;;;;;;6.07;3.87;;;;;;;;;;4965269;28;20232;-73
2023/03/14 02:31:25;;;;;;;9.03;5.60;;;;;;;;;;4968140;28;20220;-73
2023/03/14 02:33:52;;;;;;;7.30;4.67;;;;;;;;;;4968074;28;20220;-72
2023/03/14 02:36:19;;;;;;;7.23;5.17;;;;;;;;;;4969074;28;20235;-73
2023/03/14 02:38:52;;;;;;;7.93;4.70;;;;;;;;;;4960746;28;20225;-73
2023/03/14 02:41:23;;;;;;;5.43;4.10;;;;;;;;;;4981195;28;20588;-74
2023/03/14 02:43:58;;;;;;;8.37;4.97;;;;;;;;;;4951338;28;20250;-73
2023/03/14 02:46:26;;;;;;;9.47;5.23;;;;;;;;;;4967597;28;20688;-73
2023/03/14 02:48:52;;;;;;;4.57;3.13;;;;;;;;;;4982576;28;20239;-73
2023/03/14 02:51:19;;;;;;;8.17;4.43;;;;;;;;;;4970810;28;20250;-73
2023/03/14 02:53:47;;;;;;;7.50;4.37;;;;;;;;;;4966055;28;20239;-73
2023/03/14 02:56:14;;;;;;;7.83;5.27;;;;;;;;;;4967718;28;20254;-73
2023/03/14 02:58:41;;;;;;;7.00;4.60;;;;;;;;;;4965886;28;20278;-73
2023/03/14 03:01:25;;;;;;;9.53;5.43;;;;;;;;;;4967248;28;20223;-73
2023/03/14 03:03:51;;;;;;;7.37;5.37;;;;;;;;;;4964474;28;20227;-73
2023/03/14 03:06:18;;;;;;;8.37;5.20;;;;;;;;;;4985548;28;20236;-74
2023/03/14 03:08:45;;;;;;;9.33;4.90;;;;;;;;;;4981861;28;20235;-73
2023/03/14 03:11:12;;;;;;;6.20;4.20;;;;;;;;;;4983911;28;20228;-73
2023/03/14 03:13:39;;;;;;;6.07;3.40;;;;;;;;;;4947731;28;20590;-72
2023/03/14 03:16:07;;;;;;;6.17;3.53;;;;;;;;;;4968120;28;20224;-73
2023/03/14 03:18:34;;;;;;;8.90;5.00;;;;;;;;;;4982259;28;20226;-73
2023/03/14 03:21:01;;;;;;;7.40;4.70;;;;;;;;;;4968993;28;20224;-73
2023/03/14 03:23:28;;;;;;;7.50;4.63;;;;;;;;;;4998117;28;20231;-73
2023/03/14 03:25:54;;;;;;;7.40;4.30;;;;;;;;;;4982582;28;20278;-74
2023/03/14 03:28:21;;;;;;;7.03;4.50;;;;;;;;;;4966377;28;20236;-72
2023/03/14 03:30:49;;;;;;;6.90;4.90;;;;;;;;;;4983723;28;20226;-75
2023/03/14 03:33:15;;;;;;;6.83;4.60;;;;;;;;;;4981675;28;20335;-74
2023/03/14 03:35:44;;;;;;;7.53;4.43;;;;;;;;;;4982706;28;20281;-74
2023/03/14 03:38:12;;;;;;;6.03;4.27;;;;;;;;;;4981165;28;20219;-74
2023/03/14 03:40:40;;;;;;;8.27;4.77;;;;;;;;;;4983402;28;20227;-75
2023/03/14 03:43:08;;;;;;;8.63;5.23;;;;;;;;;;4981844;28;20244;-74
2023/03/14 03:45:37;;;;;;;8.60;4.60;;;;;;;;;;4981839;28;20687;-74
2023/03/14 03:48:05;;;;;;;7.87;4.83;;;;;;;;;;4959856;28;20630;-74
2023/03/14 03:50:32;;;;;;;5.77;3.53;;;;;;;;;;4983189;28;20310;-74
2023/03/14 03:52:59;;;;;;;6.33;4.07;;;;;;;;;;4980590;28;20228;-73
2023/03/14 03:55:27;;;;;;;6.10;4.90;;;;;;;;;;4982973;28;20236;-74
2023/03/14 03:57:54;;;;;;;7.03;4.37;;;;;;;;;;4981096;28;20274;-74
2023/03/14 04:00:21;;;;;;;7.93;4.67;;;;;;;;;;4982933;28;20220;-74
2023/03/14 04:02:48;;;;;;;7.17;5.07;;;;;;;;;;4960970;28;20231;-74
2023/03/14 04:05:16;;;;;;;7.77;4.80;;;;;;;;;;4933488;28;20225;-76
2023/03/14 04:07:58;;;;;;;6.50;4.43;;;;;;;;;;4967943;28;20234;-74
2023/03/14 04:10:27;;;;;;;6.53;4.57;;;;;;;;;;4980790;28;20224;-74
2023/03/14 04:13:14;;;;;;;6.47;4.40;;;;;;;;;;4981663;28;20687;-70
2023/03/14 04:15:44;;;;;;;6.83;4.20;;;;;;;;;;4965530;28;20270;-73
2023/03/14 04:18:17;;;;;;;6.17;3.93;;;;;;;;;;4961486;28;20576;-74
2023/03/14 04:20:43;;;;;;;7.63;4.43;;;;;;;;;;4956673;28;20228;-74
2023/03/14 04:23:11;;;;;;;6.40;4.10;;;;;;;;;;4946222;28;20223;-74
2023/03/14 04:25:38;;;;;;;6.47;3.90;;;;;;;;;;4881563;28;20303;-74
2023/03/14 04:28:05;;;;;;;6.03;3.80;;;;;;;;;;4970374;28;20236;-70
2023/03/14 04:30:32;;;;;;;6.10;4.10;;;;;;;;;;4932396;28;20311;-76
2023/03/14 04:33:07;;;;;;;5.93;3.83;;;;;;;;;;4902129;28;20232;-78
2023/03/14 04:35:39;;;;;;;6.57;4.07;;;;;;;;;;4906405;28;219504;-73
2023/03/14 04:38:08;;;;;;;6.00;4.30;;;;;;;;;;4965452;28;20255;-72
2023/03/14 04:40:39;;;;;;;6.17;3.80;;;;;;;;;;4961612;28;20228;-73
2023/03/14 04:43:07;;;;;;;4.83;3.90;;;;;;;;;;4976735;28;20595;-71
2023/03/14 04:45:34;;;;;;;7.57;3.57;;;;;;;;;;4947398;28;20281;-71
2023/03/14 04:48:04;;;;;;;5.77;3.50;;;;;;;;;;4944992;28;20277;-71
2023/03/14 04:50:31;;;;;;;5.33;4.00;;;;;;;;;;4962028;28;20287;-71
2023/03/14 04:52:58;;;;;;;5.37;3.43;;;;;;;;;;4960684;28;20289;-70
2023/03/14 04:55:25;;;;;;;7.37;3.90;;;;;;;;;;4934439;28;20314;-70
2023/03/14 04:57:54;;;;;;;8.10;3.80;;;;;;;;;;4959432;28;20274;-70
2023/03/14 05:00:21;;;;;;;6.83;3.87;;;;;;;;;;4918818;28;20224;-70
2023/03/14 05:03:01;;;;;;;5.20;3.40;;;;;;;;;;4974672;28;20574;-71
2023/03/14 05:05:47;;;;;;;5.10;4.00;;;;;;;;;;4953548;28;20277;-70
2023/03/14 05:08:52;;;;;;;4.80;3.20;;;;;;;;;;4859976;29;20226;-73
2023/03/14 05:11:39;;;;;;;5.93;3.37;;;;;;;;;;4901216;29;20261;-71
2023/03/14 05:14:25;;;;;;;6.87;3.73;;;;;;;;;;4938460;28;214190;-71
2023/03/14 05:17:18;;;;;;;10.13;3.43;;;;;;;;;;4912200;28;637158;-70
2023/03/14 05:20:12;;;;;;;6.27;4.10;;;;;;;;;;4967404;28;20231;-72
2023/03/14 05:22:59;;;;;;;10.20;4.20;;;;;;;;;;4955897;28;20240;-72
2023/03/14 05:25:45;;;;;;;6.67;4.03;;;;;;;;;;4949963;28;20572;-70
2023/03/14 05:28:31;;;;;;;4.97;3.80;;;;;;;;;;4920185;28;231071;-71
2023/03/14 05:31:10;;;;;;;6.43;4.23;;;;;;;;;;4954502;28;213991;-72
2023/03/14 05:34:07;;;;;;;6.33;3.37;;;;;;;;;;4981298;28;20219;-74
2023/03/14 05:36:40;;;;;;;3.37;2.90;;;;;;;;;;4921807;28;20233;-73
2023/03/14 05:39:35;;;;;;;4.27;3.47;;;;;;;;;;4918706;28;20681;-71
2023/03/14 05:42:27;;;;;;;4.97;3.20;;;;;;;;;;4934563;28;220421;-72
2023/03/14 05:45:09;;;;;;;7.73;3.07;;;;;;;;;;4938021;28;20235;-73
2023/03/14 05:47:55;;;;;;;4.33;3.20;;;;;;;;;;4963957;28;20892;-73
2023/03/14 05:50:46;;;;;;;5.80;3.10;;;;;;;;;;4950560;28;20629;-73
2023/03/14 05:53:39;;;;;;;4.73;3.13;;;;;;;;;;4936272;28;20235;-73
2023/03/14 05:56:29;;;;;;;5.73;3.20;;;;;;;;;;4895634;28;20363;-74
2023/03/14 05:59:16;;;;;;;4.83;3.27;;;;;;;;;;4943209;28;20698;-77
2023/03/14 06:01:55;;;;;;;7.77;4.30;;;;;;;;;;4957720;28;217116;-76
2023/03/14 06:04:26;;;;;;;7.57;4.30;;;;;;;;;;4948971;28;20232;-75
2023/03/14 06:06:57;;;;;;;8.77;4.60;;;;;;;;;;4952996;28;20227;-76
2023/03/14 06:09:24;;;;;;;5.60;3.80;;;;;;;;;;4947993;28;20246;-72
2023/03/14 06:11:54;;;;;;;6.03;3.90;;;;;;;;;;4967628;28;20274;-73
2023/03/14 06:14:21;;;;;;;7.20;3.90;;;;;;;;;;4947596;28;20584;-73
2023/03/14 06:16:50;;;;;;;8.43;3.77;;;;;;;;;;4971585;28;20251;-72
2023/03/14 06:19:18;;;;;;;6.37;3.03;;;;;;;;;;4966478;28;20326;-73
2023/03/14 06:21:45;;;;;;;4.53;2.80;;;;;;;;;;4982700;28;20227;-73
2023/03/14 06:24:12;;;;;;;6.57;3.27;;;;;;;;;;4979765;28;20654;-73
2023/03/14 06:26:44;;;;;;;5.87;3.33;;;;;;;;;;4978760;28;20231;-73
2023/03/14 06:29:10;;;;;;;6.53;3.50;;;;;;;;;;4985429;28;20234;-73
2023/03/14 06:31:37;;;;;;;4.87;3.00;;;;;;;;;;4980689;28;20226;-73
2023/03/14 06:34:06;;;;;;;5.13;3.23;;;;;;;;;;4989346;28;20661;-73
2023/03/14 06:36:33;;;;;;;5.00;2.80;;;;;;;;;;4977769;28;20623;-74
2023/03/14 06:39:01;;;;;;;4.40;3.07;;;;;;;;;;4935802;28;219927;-75
2023/03/14 06:41:30;;;;;;;4.37;3.00;;;;;;;;;;4911651;28;20295;-74
2023/03/14 06:43:58;;;;;;;4.23;2.43;;;;;;;;;;4852935;28;23151;-71
2023/03/14 06:46:25;;;;;;;4.43;2.67;;;;;;;;;;4883033;28;20230;-73
2023/03/14 06:48:53;;;;;;;3.37;2.47;;;;;;;;;;4932140;28;246667;-75
2023/03/14 06:51:20;;;;;;;4.23;2.50;;;;;;;;;;4916615;28;20299;-75
2023/03/14 06:53:47;;;;;;;5.50;2.50;;;;;;;;;;4946167;28;20224;-74
2023/03/14 06:56:16;;;;;;;4.27;2.67;;;;;;;;;;4883932;28;221447;-74
2023/03/14 06:58:44;;;;;;;4.10;2.40;;;;;;;;;;4919317;28;20284;-75
2023/03/14 07:01:25;;;;;;;3.23;2.60;;;;;;;;;;4936888;28;221888;-76
2023/03/14 07:03:54;;;;;;;3.27;2.40;;;;;;;;;;4972618;28;20586;-59
2023/03/14 07:06:21;;;;;;;4.53;2.77;;;;;;;;;;4963089;28;20248;-60
2023/03/14 07:08:49;;;;;;;6.20;2.90;;;;;;;;;;4981267;28;20390;-59
2023/03/14 07:11:18;;;;;;;4.47;2.60;;;;;;;;;;4979483;28;20236;-56
2023/03/14 07:13:46;;;;;;;6.30;3.03;;;;;;;;;;4980876;28;20231;-56
2023/03/14 07:16:13;;;;;;;7.13;3.20;;;;;;;;;;4979717;28;20750;-56
2023/03/14 07:18:40;;;;;;;4.87;2.87;;;;;;;;;;4983527;28;20277;-56
2023/03/14 07:21:08;;;;;;;5.30;2.93;;;;;;;;;;4970114;28;20268;-56
2023/03/14 07:23:36;;;;;;;5.57;3.27;;;;;;;;;;4978614;28;20224;-58
2023/03/14 07:26:03;;;;;;;5.93;3.53;;;;;;;;;;4983235;28;20227;-58
2023/03/14 07:28:31;;;;;;;7.07;3.57;;;;;;;;;;4966126;28;20382;-56
2023/03/14 07:31:04;;;;;;;4.80;3.40;;;;;;;;;;4979296;28;20290;-58
2023/03/14 07:33:31;;;;;;;5.60;3.03;;;;;;;;;;4978411;28;21024;-56
2023/03/14 07:35:59;;;;;;;4.83;3.07;;;;;;;;;;4961623;28;20229;-57
2023/03/14 07:38:26;;;;;;;4.00;2.90;;;;;;;;;;4969944;28;20611;-59
2023/03/14 07:41:11;;;;;;;5.23;3.00;;;;;;;;;;4960340;28;20880;-60
2023/03/14 07:44:07;;;;;;;3.07;2.70;;;;;;;;;;4959707;28;20231;-60
2023/03/14 07:46:34;;;;;;;3.53;2.47;;;;;;;;;;4978994;28;20227;-61
2023/03/14 07:49:01;;;;;;;3.00;2.30;;;;;;;;;;4981226;28;50031;-60
2023/03/14 07:51:27;;;;;;;5.10;2.70;;;;;;;;;;4980111;28;20220;-58
2023/03/14 07:53:55;;;;;;;4.87;2.60;;;;;;;;;;4981965;28;20236;-59
2023/03/14 07:56:22;;;;;;;4.67;2.93;;;;;;;;;;4980443;28;20614;-59
2023/03/14 07:58:49;;;;;;;3.87;2.90;;;;;;;;;;4982150;28;20315;-59
2023/03/14 08:01:16;;;;;;;4.20;2.87;;;;;;;;;;4979277;28;20716;-59
2023/03/14 08:03:42;;;;;;;4.57;2.87;;;;;;;;;;4981687;28;20252;-60
2023/03/14 08:06:09;;;;;;;4.07;3.13;;;;;;;;;;4979726;28;20232;-60
2023/03/14 08:08:36;;;;;;;4.00;2.90;;;;;;;;;;4980384;28;20228;-60
2023/03/14 08:11:04;;;;;;;5.03;3.07;;;;;;;;;;4982396;28;20228;-59
2023/03/14 08:13:31;;;;;;;5.87;3.57;;;;;;;;;;4966664;28;20231;-59
2023/03/14 08:16:00;;;;;;;5.97;3.27;;;;;;;;;;4980900;28;20769;-59
2023/03/14 08:18:27;;;;;;;4.90;3.40;;;;;;;;;;4981678;28;20852;-59
2023/03/14 08:20:54;;;;;;;6.03;3.60;;;;;;;;;;4979883;28;21066;-59
2023/03/14 08:23:21;;;;;;;3.70;3.00;;;;;;;;;;4981467;28;20231;-58
2023/03/14 08:25:51;;;;;;;4.47;3.40;;;;;;;;;;4978285;28;20572;-59
2023/03/14 08:28:18;;;;;;;5.57;3.67;;;;;;;;;;4979487;28;20240;-59
2023/03/14 08:30:44;;;;;;;5.10;3.30;;;;;;;;;;4981918;28;20234;-59
2023/03/14 08:33:13;;;;;;;4.90;2.97;;;;;;;;;;4980293;28;20227;-60
2023/03/14 08:35:40;;;;;;;6.50;3.30;;;;;;;;;;4981618;28;24937;-59
2023/03/14 08:38:07;;;;;;;4.70;3.40;;;;;;;;;;4979178;28;20230;-59
2023/03/14 08:40:34;;;;;;;5.47;4.00;;;;;;;;;;4969384;28;20243;-58
2023/03/14 08:43:01;;;;;;;4.83;3.40;;;;;;;;;;4983080;28;20733;-59
2023/03/14 08:45:27;;;;;;;4.40;3.10;;;;;;;;;;4987938;28;20242;-59
2023/03/14 08:47:54;;;;;;;4.60;3.70;;;;;;;;;;4969872;28;20220;-60
2023/03/14 08:50:23;;;;;;;4.00;3.20;;;;;;;;;;4987723;28;20243;-59
2023/03/14 08:52:50;;;;;;;6.33;3.47;;;;;;;;;;4984931;28;20227;-56
2023/03/14 08:55:16;;;;;;;5.77;4.00;;;;;;;;;;4986695;28;21053;-57
2023/03/14 08:57:43;;;;;;;7.77;4.43;;;;;;;;;;4986777;28;20231;-58
2023/03/14 09:00:13;;;;;;;6.77;4.07;;;;;;;;;;4987877;28;23760;-56
2023/03/14 09:02:43;;;;;;;7.97;3.97;;;;;;;;;;4984352;28;20223;-73
2023/03/14 09:05:11;;;;;;;5.23;3.77;;;;;;;;;;4966797;28;20223;-76
2023/03/14 09:07:38;;;;;;;4.93;3.33;;;;;;;;;;4985175;28;20236;-74
2023/03/14 09:10:05;;;;;;;5.03;3.67;;;;;;;;;;4983468;28;20228;-73
2023/03/14 09:12:32;;;;;;;4.60;3.77;;;;;;;;;;4984577;28;20425;-72
2023/03/14 09:14:58;;;;;;;6.70;3.70;;;;;;;;;;4968563;28;20754;-73
2023/03/14 09:17:25;;;;;;;5.40;3.90;;;;;;;;;;4962588;28;20379;-75
2023/03/14 09:19:52;;;;;;;6.37;4.00;;;;;;;;;;4968408;28;20650;-72
2023/03/14 09:22:20;;;;;;;6.07;3.80;;;;;;;;;;4970974;28;20754;-73
2023/03/14 09:24:47;;;;;;;5.07;3.83;;;;;;;;;;4964274;28;20704;-73
2023/03/14 09:27:13;;;;;;;6.47;4.27;;;;;;;;;;4935843;28;20646;-71
2023/03/14 09:29:40;;;;;;;7.10;4.30;;;;;;;;;;4983893;28;20235;-75
2023/03/14 09:32:07;;;;;;;5.43;4.10;;;;;;;;;;4966441;28;20242;-72
2023/03/14 09:34:35;;;;;;;6.63;4.37;;;;;;;;;;4982445;28;20243;-73
2023/03/14 09:37:06;;;;;;;6.07;3.93;;;;;;;;;;4968847;28;20910;-72
2023/03/14 09:39:33;;;;;;;5.83;3.33;;;;;;;;;;4968541;28;20236;-72
2023/03/14 09:42:01;;;;;;;6.27;3.60;;;;;;;;;;4971479;28;20228;-72
2023/03/14 09:44:31;;;;;;;4.87;3.53;;;;;;;;;;4984485;28;20238;-72
2023/03/14 09:47:01;;;;;;;4.70;3.57;;;;;;;;;;4984415;28;20307;-72
2023/03/14 09:49:36;;;;;;;5.93;4.20;;;;;;;;;;4967747;28;20319;-73
2023/03/14 09:52:22;;;;;;;6.23;3.97;;;;;;;;;;4950849;28;21082;-74
2023/03/14 09:54:49;;;;;;;2.97;2.17;;;;;;;;;;4943032;28;20287;-73
2023/03/14 09:57:17;;;;;;;4.90;4.27;;;;;;;;;;4980498;28;20228;-72
2023/03/14 09:59:44;;;;;;;6.00;3.63;;;;;;;;;;4979962;28;20742;-72
2023/03/14 10:02:15;;;;;;;5.80;4.00;;;;;;;;;;4981783;28;20286;-72
2023/03/14 10:04:44;;;;;;;6.83;4.37;;;;;;;;;;4979387;28;20314;-74
2023/03/14 10:07:31;;;;;;;4.70;3.80;;;;;;;;;;4957483;28;20746;-74
2023/03/14 10:09:58;;;;;;;4.57;3.73;;;;;;;;;;4978142;28;20234;-74
2023/03/14 10:12:35;;;;;;;7.07;5.23;;;;;;;;;;4966774;28;20232;-75
2023/03/14 10:15:06;;;;;;;6.43;4.00;;;;;;;;;;4979775;28;20236;-70
2023/03/14 10:17:43;;;;;;;7.57;3.97;;;;;;;;;;4990668;28;20232;-73
2023/03/14 10:20:32;;;;;;;8.33;4.20;;;;;;;;;;4979895;28;20227;-72
2023/03/14 10:22:59;;;;;;;4.00;3.50;;;;;;;;;;4964010;28;20224;-71
2023/03/14 10:25:30;;;;;;;6.40;4.20;;;;;;;;;;4946379;28;20212;-70
2023/03/14 10:27:57;;;;;;;6.73;4.30;;;;;;;;;;4977803;28;20259;-71
2023/03/14 10:30:43;;;;;;;4.80;3.80;;;;;;;;;;4968081;28;20224;-74
2023/03/14 10:33:12;;;;;;;7.30;3.70;;;;;;;;;;4956489;28;20299;-73
2023/03/14 10:35:39;;;;;;;5.50;3.60;;;;;;;;;;4963894;28;20873;-73
2023/03/14 10:38:10;;;;;;;5.03;3.50;;;;;;;;;;4952289;28;20231;-72
2023/03/14 10:40:38;;;;;;;5.03;3.40;;;;;;;;;;4963699;28;20224;-71
2023/03/14 10:43:05;;;;;;;4.37;3.20;;;;;;;;;;4969340;28;20228;-71
2023/03/14 10:45:32;;;;;;;6.27;4.13;;;;;;;;;;4978520;28;20232;-70
2023/03/14 10:48:05;;;;;;;7.37;4.50;;;;;;;;;;4982433;28;20710;-70
2023/03/14 10:50:34;;;;;;;8.50;3.93;;;;;;;;;;4962654;28;20236;-71
2023/03/14 10:53:05;;;;;;;8.57;3.63;;;;;;;;;;4981023;28;20286;-71
2023/03/14 10:55:41;;;;;;;7.40;4.83;;;;;;;;;;4923072;28;20232;-71
2023/03/14 10:58:25;;;;;;;6.57;3.03;;;;;;;;;;4948339;28;20235;-70
2023/03/14 11:01:04;;;;;;;7.87;4.50;;;;;;;;;;4965937;28;20227;-70
2023/03/14 11:03:32;;;;;;;8.33;4.23;;;;;;;;;;4966105;28;20790;-69
2023/03/14 11:06:01;;;;;;;4.90;4.30;;;;;;;;;;4980299;28;20224;-69
2023/03/14 11:08:37;;;;;;;6.53;3.80;;;;;;;;;;4950238;28;20298;-71
2023/03/14 11:11:13;;;;;;;6.63;4.47;;;;;;;;;;4993901;28;20230;-71
2023/03/14 11:13:44;;;;;;;5.73;3.60;;;;;;;;;;4979813;28;20786;-70
2023/03/14 11:16:20;;;;;;;5.30;3.43;;;;;;;;;;4978527;28;20259;-69
2023/03/14 11:18:57;;;;;;;3.90;3.00;;;;;;;;;;4964075;28;20262;-69
2023/03/14 11:21:30;;;;;;;4.50;3.60;;;;;;;;;;4979536;28;20223;-72
2023/03/14 11:24:14;;;;;;;6.93;3.40;;;;;;;;;;4959132;28;20255;-70
2023/03/14 11:26:41;;;;;;;6.23;3.60;;;;;;;;;;4971792;28;20250;-70
2023/03/14 11:29:08;;;;;;;4.73;3.03;;;;;;;;;;4951119;28;20339;-70
2023/03/14 11:31:35;;;;;;;2.87;2.57;;;;;;;;;;4973273;28;23707;-74
2023/03/14 11:34:08;;;;;;;5.70;3.17;;;;;;;;;;4953674;28;219491;-74
2023/03/14 11:36:35;;;;;;;4.03;3.50;;;;;;;;;;4934398;28;20761;-72
2023/03/14 11:39:03;;;;;;;4.83;3.00;;;;;;;;;;4958715;28;218183;-69
2023/03/14 11:41:33;;;;;;;3.20;2.60;;;;;;;;;;4964959;28;20289;-69
2023/03/14 11:44:01;;;;;;;6.70;2.90;;;;;;;;;;4977302;28;20774;-70
2023/03/14 11:46:29;;;;;;;4.60;2.63;;;;;;;;;;4964087;28;20231;-79
2023/03/14 11:49:14;;;;;;;3.67;2.70;;;;;;;;;;4979472;28;20854;-74
2023/03/14 11:51:42;;;;;;;3.87;2.90;;;;;;;;;;4924427;28;20367;-71
2023/03/14 11:54:20;;;;;;;4.43;2.90;;;;;;;;;;4950251;28;245406;-72
2023/03/14 11:56:50;;;;;;;3.77;2.60;;;;;;;;;;4961899;28;20368;-76
2023/03/14 11:59:45;;;;;;;3.40;2.50;;;;;;;;;;4950718;28;20216;-77
2023/03/14 12:02:25;;;;;;;5.57;2.80;;;;;;;;;;4970266;28;20267;-75
2023/03/14 12:05:01;;;;;;;6.83;2.83;;;;;;;;;;4993690;28;20234;-72
2023/03/14 12:07:54;;;;;;;4.03;2.80;;;;;;;;;;4978147;28;20302;-78
2023/03/14 12:10:21;;;;;;;6.53;2.70;;;;;;;;;;4926961;28;20299;-75
2023/03/14 12:12:48;;;;;;;6.00;2.70;;;;;;;;;;4889631;28;20241;-77
2023/03/14 12:15:18;;;;;;;4.07;2.50;;;;;;;;;;4977867;28;20224;-78
2023/03/14 12:17:46;;;;;;;4.67;2.67;;;;;;;;;;4943502;28;20224;-75
2023/03/14 12:20:20;;;;;;;4.70;2.47;;;;;;;;;;4935574;28;20622;-75
2023/03/14 12:22:51;;;;;;;3.90;2.60;;;;;;;;;;4941766;28;20863;-73
2023/03/14 12:25:21;;;;;;;5.00;2.57;;;;;;;;;;4928183;28;20232;-74
2023/03/14 12:27:48;;;;;;;2.20;1.57;;;;;;;;;;4960657;28;20595;-75
2023/03/14 12:30:16;;;;;;;3.90;2.30;;;;;;;;;;4958157;28;218148;-77
2023/03/14 12:32:53;;;;;;;2.20;1.60;;;;;;;;;;4976716;28;20310;-74
2023/03/14 12:35:39;;;;;;;3.37;2.07;;;;;;;;;;4961436;28;20248;-73
2023/03/14 12:38:30;;;;;;;5.50;2.40;;;;;;;;;;4967635;28;20305;-76
2023/03/14 12:41:03;;;;;;;2.87;2.10;;;;;;;;;;4949570;28;20228;-76
2023/03/14 12:43:30;;;;;;;4.40;2.23;;;;;;;;;;4972930;28;20285;-73
2023/03/14 12:46:06;;;;;;;3.33;2.23;;;;;;;;;;4962519;28;20723;-74
2023/03/14 12:48:33;;;;;;;3.77;1.40;;;;;;;;;;4977156;28;20219;-77
2023/03/14 12:51:03;;;;;;;3.13;1.90;;;;;;;;;;4945689;28;20235;-72
2023/03/14 12:53:36;;;;;;;3.37;2.00;;;;;;;;;;4964293;28;20231;-71
2023/03/14 12:56:09;;;;;;;5.37;2.07;;;;;;;;;;4963248;28;20681;-78
2023/03/14 12:58:41;;;;;;;2.83;1.70;;;;;;;;;;4949094;28;20764;-74
2023/03/14 13:01:15;;;;;;;6.23;2.30;;;;;;;;;;4955907;28;228992;-73
2023/03/14 13:03:43;;;;;;;4.20;1.70;;;;;;;;;;4965252;28;20715;-72
2023/03/14 13:06:11;;;;;;;4.60;1.90;;;;;;;;;;4961834;28;20230;-72
2023/03/14 13:08:40;;;;;;;4.87;1.50;;;;;;;;;;4909967;28;20244;-73
2023/03/14 13:11:25;;;;;;;3.63;1.50;;;;;;;;;;4898495;28;20235;-74
2023/03/14 13:13:56;;;;;;;2.30;1.30;;;;;;;;;;4958795;28;20419;-72
2023/03/14 13:16:23;;;;;;;3.17;1.83;;;;;;;;;;4978066;28;20691;-70
2023/03/14 13:18:51;;;;;;;4.93;1.57;;;;;;;;;;4964759;28;20239;-73
2023/03/14 13:21:19;;;;;;;3.40;1.60;;;;;;;;;;4964826;28;20227;-76
2023/03/14 13:23:58;;;;;;;3.27;1.40;;;;;;;;;;4951394;28;20630;-76
2023/03/14 13:26:37;;;;;;;3.70;1.83;;;;;;;;;;4913380;28;20306;-74
2023/03/14 13:29:20;;;;;;;2.77;1.47;;;;;;;;;;4963226;28;20244;-70
2023/03/14 13:31:48;;;;;;;2.80;0.97;;;;;;;;;;4981270;28;20261;-71
2023/03/14 13:34:15;;;;;;;4.03;1.90;;;;;;;;;;4996854;28;20253;-73
2023/03/14 13:36:42;;;;;;;5.60;1.87;;;;;;;;;;4981520;28;20564;-72
2023/03/14 13:39:18;;;;;;;4.30;1.57;;;;;;;;;;4959494;28;20611;-73
2023/03/14 13:41:46;;;;;;;2.57;1.50;;;;;;;;;;4982413;28;20235;-70
2023/03/14 13:44:14;;;;;;;4.33;1.80;;;;;;;;;;4983036;28;23408;-72
2023/03/14 13:46:41;;;;;;;4.57;1.87;;;;;;;;;;4973966;28;20244;-70
2023/03/14 13:49:12;;;;;;;3.43;1.60;;;;;;;;;;4981306;28;20294;-70
2023/03/14 13:51:39;;;;;;;3.53;1.53;;;;;;;;;;4979618;28;20611;-74
2023/03/14 13:54:15;;;;;;;4.80;1.70;;;;;;;;;;4983632;28;20232;-73
2023/03/14 13:56:43;;;;;;;4.20;1.87;;;;;;;;;;4999188;28;20231;-71
2023/03/14 13:59:26;;;;;;;3.37;1.30;;;;;;;;;;4984870;28;20235;-72
2023/03/14 14:01:53;;;;;;;3.50;1.63;;;;;;;;;;4984609;28;20319;-72
2023/03/14 14:04:25;;;;;;;4.50;1.60;;;;;;;;;;5000560;28;20235;-73
2023/03/14 14:06:54;;;;;;;4.20;1.83;;;;;;;;;;4968818;28;20302;-75
2023/03/14 14:09:23;;;;;;;2.03;1.00;;;;;;;;;;4963992;28;20240;-75
2023/03/14 14:11:58;;;;;;;4.53;1.60;;;;;;;;;;4964469;28;20283;-75
2023/03/14 14:14:49;;;;;;;3.83;1.60;;;;;;;;;;4975560;28;20228;-75
2023/03/14 14:17:21;;;;;;;4.53;1.43;;;;;;;;;;4983242;28;20239;-75
2023/03/14 14:19:48;;;;;;;4.23;1.83;;;;;;;;;;4983137;28;20251;-75
2023/03/14 14:22:14;;;;;;;5.33;1.90;;;;;;;;;;4979302;28;20240;-72
2023/03/14 14:24:41;;;;;;;3.37;1.40;;;;;;;;;;4961192;28;20236;-73
2023/03/14 14:27:08;;;;;;;4.13;1.67;;;;;;;;;;4965731;28;20231;-74
2023/03/14 14:29:34;;;;;;;4.07;1.37;;;;;;;;;;4966184;28;20315;-74
2023/03/14 14:32:21;;;;;;;3.40;1.60;;;;;;;;;;4980709;28;20252;-74
2023/03/14 14:34:54;;;;;;;4.63;1.70;;;;;;;;;;4962405;28;23493;-74
2023/03/14 14:37:22;;;;;;;1.57;0.80;;;;;;;;;;4977928;28;20235;-73
2023/03/14 14:39:52;;;;;;;3.17;1.70;;;;;;;;;;4948611;28;20654;-74
2023/03/14 14:42:21;;;;;;;4.53;1.57;;;;;;;;;;4978944;28;20228;-73
2023/03/14 14:44:51;;;;;;;4.23;1.53;;;;;;;;;;4964255;28;20908;-72
2023/03/14 14:47:18;;;;;;;3.60;1.70;;;;;;;;;;4979510;28;20778;-74
2023/03/14 14:49:46;;;;;;;6.10;1.87;;;;;;;;;;4936987;28;20251;-70
2023/03/14 14:52:13;;;;;;;2.60;1.40;;;;;;;;;;4980257;28;20788;-70
2023/03/14 14:54:46;;;;;;;3.53;1.60;;;;;;;;;;4948610;28;20220;-70
2023/03/14 14:57:17;;;;;;;3.57;1.60;;;;;;;;;;4963894;28;20274;-71
2023/03/14 14:59:44;;;;;;;4.80;1.73;;;;;;;;;;4966385;28;20306;-70
2023/03/14 15:02:25;;;;;;;4.97;1.43;;;;;;;;;;4935297;28;20776;-70
2023/03/14 15:04:51;;;;;;;5.93;1.70;;;;;;;;;;4956323;28;20338;-70
2023/03/14 15:07:18;;;;;;;3.33;1.27;;;;;;;;;;4981089;28;20220;-68
2023/03/14 15:09:45;;;;;;;4.60;1.47;;;;;;;;;;4962749;28;20755;-69
2023/03/14 15:12:29;;;;;;;5.13;1.70;;;;;;;;;;4958892;28;20262;-71
2023/03/14 15:14:57;;;;;;;5.20;2.20;;;;;;;;;;4980236;28;20282;-71
2023/03/14 15:17:41;;;;;;;4.60;1.80;;;;;;;;;;4960477;28;20326;-70
2023/03/14 15:20:13;;;;;;;5.00;1.80;;;;;;;;;;4963501;28;20306;-72
2023/03/14 15:22:40;;;;;;;7.10;2.83;;;;;;;;;;4960446;28;20573;-71
2023/03/14 15:25:08;;;;;;;4.83;2.07;;;;;;;;;;4980087;28;20228;-70
2023/03/14 15:27:44;;;;;;;5.60;2.70;;;;;;;;;;4970256;28;20231;-70
2023/03/14 15:30:14;;;;;;;6.80;2.70;;;;;;;;;;4980187;28;20239;-72
2023/03/14 15:32:41;;;;;;;4.77;2.60;;;;;;;;;;4978404;28;20607;-70
2023/03/14 15:35:08;;;;;;;4.33;1.83;;;;;;;;;;4980662;28;20235;-70